• Join FlightAware (Why Join?)
  • Login
  • US Flag 
08:23AM EDT


 

Airport Tracker/Info


-or-


 

Live Flight TrackerFlight Track Log ✈ CPT8773 ✈ 19-Jul-2013 ✈ KCPR - KCOD

Flight Track Log - Related Links

Times and Time Zones

All times are in EDT time to prevent confusion due to time zone crossing. See the CPT8773 flight status page for this flight to view local times or setup timezone preferences in your user account.

Time Position Orientation Groundspeed Altitude Reporting Facility
EDT Latitude Longitude Course Direction KTS MPH feet Rate Location/Type
10:13AM 42.9817 -106.4622 308° West 146 168 7,100  Level Salt Lake Center
10:14AM 43.0119 -106.4700 349° North 144 166 7,700 660 Climbing Denver Center
10:15AM 43.0472 -106.4767 352° North 139 160 8,400 720 Climbing Denver Center
10:16AM 43.0883 -106.4817 355° North 136 157 9,200 720 Climbing Denver Center
10:17AM 43.0947 -106.2866 308° West  Level FlightAware Approximate
10:17AM 43.1217 -106.4836 358° North 131 151 9,900  Level Denver Center
10:18AM 43.1200 -106.3308 308° West  Level FlightAware Approximate
10:18AM 43.1600 -106.4811 North 126 145 10,500  Level Denver Center
10:19AM 43.1939 -106.4839 357° North 126 145 11,200 660 Climbing Denver Center
10:20AM 43.2186 -106.5181 315° West 120 138 11,900 360 Climbing Denver Center
10:21AM 43.2361 -106.5569 302° West 125 144 12,000  Climbing Denver Center
10:22AM 43.2642 -106.6092 306° West 148 170 12,000  Level Denver Center
10:23AM 43.2900 -106.6542 308° West 156 180 12,000  Level Denver Center
10:24AM 43.3189 -106.7081 306° West 157 181 12,000  Level Denver Center
10:25AM 43.3422 -106.7522 306° West 151 174 12,000  Level Denver Center
10:26AM 43.3647 -106.7969 305° West 149 171 12,000  Level Denver Center
10:27AM 43.3911 -106.8478 306° West 148 170 12,100  Climbing Denver Center
10:28AM 43.4169 -106.8978 305° West 150 173 12,100  Level Denver Center
10:29AM 43.4408 -106.9444 305° West 150 173 12,100  Level Denver Center
10:30AM 43.4653 -106.9903 306° West 149 171 12,100  Level Denver Center
10:31AM 43.4894 -107.0364 306° West 149 171 12,100  Level Denver Center
10:32AM 43.5144 -107.0828 307° West 150 173 12,100 -60 Level Denver Center
10:33AM 43.5419 -107.1408 303° West 150 173 12,000 -60 Descending Salt Lake Center
10:34AM 43.5658 -107.1861 306° West 147 169 12,000  Level Salt Lake Center
10:36AM 43.5944 -107.2419 305° West 149 171 12,000  Level Salt Lake Center
10:37AM 43.6175 -107.2886 304° West 148 170 12,000  Level Salt Lake Center
10:38AM 43.6422 -107.3350 306° West 150 173 12,000  Level Salt Lake Center
10:39AM 43.6667 -107.3811 306° West 149 171 12,000  Level Salt Lake Center
10:40AM 43.6908 -107.4278 306° West 150 173 12,000  Level Salt Lake Center
10:41AM 43.7164 -107.4744 307° West 152 175 12,000  Level Salt Lake Center
10:42AM 43.7439 -107.5317 304° West 150 173 12,000  Level Salt Lake Center
10:43AM 43.7700 -107.5778 308° West 150 173 12,000  Level Salt Lake Center
10:44AM 43.7950 -107.6253 306° West 152 175 12,000  Level Salt Lake Center
10:45AM 43.8189 -107.6722 305° West 151 174 12,000  Level Salt Lake Center
10:46AM 43.8414 -107.7203 303° West 150 173 12,000  Level Salt Lake Center
10:47AM 43.8653 -107.7653 306° West 148 170 12,000  Level Salt Lake Center
10:48AM 43.8947 -107.8206 306° West 148 170 12,000  Level Salt Lake Center
10:49AM 43.9183 -107.8683 304° West 149 171 12,000  Level Salt Lake Center
10:50AM 43.9422 -107.9167 304° West 150 173 12,000  Level Salt Lake Center
10:51AM 43.9675 -107.9642 306° West 151 174 12,000  Level Salt Lake Center
10:52AM 43.9967 -108.0058 314° West 152 175 12,000  Level Salt Lake Center
10:53AM 44.0264 -108.0486 314° West 153 176 12,100  Climbing Salt Lake Center
10:54AM 44.0600 -108.1008 312° West 152 175 12,100  Level Salt Lake Center
10:55AM 44.0875 -108.1469 310° West 153 176 12,100  Level Salt Lake Center
10:56AM 44.1114 -108.1958 304° West 153 176 12,100  Level Salt Lake Center
10:57AM 44.1350 -108.2444 304° West 152 175 12,100  Level Salt Lake Center
10:58AM 44.1592 -108.2931 305° West 152 175 12,100  Level Salt Lake Center
10:59AM 44.1833 -108.3425 304° West 153 176 12,100  Level Salt Lake Center
11:00AM 44.2081 -108.3917 305° West 154 177 12,100  Level Salt Lake Center